createdAt,value
2016-05-16T00:00:13.396Z,81.31
2016-05-16T00:01:13.431Z,80.93
2016-05-16T00:02:13.481Z,81.89
2016-05-16T00:03:13.514Z,83.14
2016-05-16T00:04:13.548Z,81.79
2016-05-16T00:05:13.581Z,80.74
2016-05-16T00:06:13.617Z,81.02
2016-05-16T00:07:13.650Z,82.37
2016-05-16T00:08:13.700Z,81.98
2016-05-16T00:09:13.733Z,81.02
2016-05-16T00:10:13.767Z,80.83
2016-05-16T00:11:13.800Z,81.6
2016-05-16T00:12:13.835Z,80.74
2016-05-16T00:13:13.870Z,80.83
2016-05-16T00:14:13.903Z,81.12
2016-05-16T00:15:13.953Z,81.41
2016-05-16T00:16:13.986Z,81.51
2016-05-16T00:17:14.021Z,81.6
2016-05-16T00:18:14.054Z,82.18
2016-05-16T00:19:14.104Z,81.89
2016-05-16T00:20:14.310Z,81.7
2016-05-16T00:21:14.172Z,81.98
2016-05-16T00:22:14.205Z,82.08
2016-05-16T00:23:14.240Z,81.31
2016-05-16T00:24:14.274Z,81.31
2016-05-16T00:25:14.308Z,81.6
2016-05-16T00:26:14.357Z,82.37
2016-05-16T00:27:14.391Z,81.98
2016-05-16T00:28:14.426Z,82.65
2016-05-16T00:29:14.459Z,83.52
2016-05-16T00:30:14.493Z,83.33
2016-05-16T00:31:14.526Z,81.98
2016-05-16T00:32:14.562Z,81.7
2016-05-16T00:33:14.610Z,82.94
2016-05-16T00:34:14.645Z,83.23
2016-05-16T00:35:14.678Z,83.14
2016-05-16T00:36:14.712Z,81.89
2016-05-16T00:37:14.762Z,82.08
2016-05-16T00:38:14.780Z,81.79
2016-05-16T00:39:14.814Z,82.56
2016-05-16T00:40:14.864Z,83.33
2016-05-16T00:41:14.898Z,83.14
2016-05-16T00:42:14.931Z,83.04
2016-05-16T00:43:14.966Z,83.33
2016-05-16T00:44:14.999Z,82.56
2016-05-16T00:45:15.049Z,82.37
2016-05-16T00:46:15.083Z,82.85
2016-05-16T00:47:15.117Z,82.18
2016-05-16T00:48:15.150Z,81.6
2016-05-16T00:49:15.185Z,82.75
2016-05-16T00:50:15.219Z,82.75
2016-05-16T00:51:15.268Z,81.89
2016-05-16T00:52:15.302Z,82.75
2016-05-16T00:53:15.336Z,83.23
2016-05-16T00:54:15.371Z,82.85
2016-05-16T00:55:15.404Z,83.23
2016-05-16T00:56:15.438Z,84.09
2016-05-16T00:57:15.472Z,83.04
2016-05-16T00:58:15.522Z,82.56
2016-05-16T00:59:15.554Z,83.04
2016-05-16T01:00:15.589Z,83.14
2016-05-16T01:01:15.623Z,82.94
2016-05-16T01:02:15.657Z,82.27
2016-05-16T01:03:15.691Z,82.27
2016-05-16T01:04:15.740Z,83.14
2016-05-16T01:05:15.775Z,83.42
2016-05-16T01:06:15.808Z,82.56
2016-05-16T01:07:15.843Z,83.33
2016-05-16T01:08:15.876Z,83.14
2016-05-16T01:09:15.911Z,81.98
2016-05-16T01:10:15.960Z,83.14
2016-05-16T01:11:15.994Z,84.09
2016-05-16T01:12:16.028Z,84
2016-05-16T01:13:16.062Z,83.33
2016-05-16T01:14:16.096Z,83.91
2016-05-16T01:15:16.130Z,84
2016-05-16T01:16:16.163Z,83.23
2016-05-16T01:17:16.197Z,84
2016-05-16T01:18:16.247Z,84.09
2016-05-16T01:19:16.281Z,84.28
2016-05-16T01:20:16.316Z,83.33
2016-05-16T01:21:16.349Z,83.04
2016-05-16T01:22:16.382Z,82.08
2016-05-16T01:23:16.433Z,82.56
2016-05-16T01:24:16.467Z,83.52
2016-05-16T01:25:16.500Z,84.77
2016-05-16T01:26:16.534Z,84.25
2016-05-16T01:27:16.569Z,84.67
2016-05-16T01:28:16.601Z,83.81
2016-05-16T01:29:16.652Z,84.48
2016-05-16T01:30:16.685Z,84.19
2016-05-16T01:31:16.720Z,84
2016-05-16T01:32:16.754Z,84.48
2016-05-16T01:33:16.788Z,84.38
2016-05-16T01:34:16.821Z,82.94
2016-05-16T01:35:16.870Z,83.71
2016-05-16T01:36:16.904Z,84
2016-05-16T01:37:16.940Z,84
2016-05-16T01:38:16.973Z,82.85
2016-05-16T01:39:17.006Z,83.33
2016-05-16T01:40:17.041Z,82.85
2016-05-16T01:41:17.090Z,82.46
2016-05-16T01:42:17.124Z,82.85
2016-05-16T01:43:17.159Z,82.65
2016-05-16T01:44:17.192Z,83.04
2016-05-16T01:45:17.225Z,83.52
2016-05-16T01:46:17.261Z,84.19
2016-05-16T01:47:17.309Z,83.81
2016-05-16T01:48:17.343Z,84.28
2016-05-16T01:49:17.378Z,83.52
2016-05-16T01:50:17.411Z,84.25
2016-05-16T01:51:17.475Z,83.42
2016-05-16T01:52:17.551Z,84.28
2016-05-16T01:53:17.625Z,84
2016-05-16T01:54:17.714Z,83.52
2016-05-16T01:55:17.789Z,82.18
2016-05-16T01:56:17.843Z,83.19
2016-05-16T01:57:17.892Z,83.23
2016-05-16T01:58:17.941Z,83.86
2016-05-16T01:59:18.005Z,83.23
2016-05-16T02:00:18.069Z,83.14
2016-05-16T02:01:18.094Z,83.23
2016-05-16T02:02:18.134Z,82.75
2016-05-16T02:03:18.174Z,83.19
2016-05-16T02:04:18.213Z,84
2016-05-16T02:05:18.252Z,84.15
2016-05-16T02:06:18.320Z,83.91
2016-05-16T02:07:18.340Z,84
2016-05-16T02:08:18.376Z,83.29
2016-05-16T02:09:18.412Z,83.42
2016-05-16T02:10:18.448Z,83.33
2016-05-16T02:11:18.483Z,82.75
2016-05-16T02:12:18.533Z,82.56
2016-05-16T02:13:18.567Z,82.27
2016-05-16T02:14:18.603Z,83.14
2016-05-16T02:15:18.637Z,83.38
2016-05-16T02:16:18.671Z,82.75
2016-05-16T02:17:18.704Z,83.19
2016-05-16T02:18:18.740Z,81.56
2016-05-16T02:19:18.773Z,81.79
2016-05-16T02:20:18.822Z,83.04
2016-05-16T02:21:18.857Z,82.75
2016-05-16T02:22:18.890Z,81.98
2016-05-16T02:23:18.924Z,82.18
2016-05-16T02:24:18.974Z,81.98
2016-05-16T02:25:19.008Z,81.95
2016-05-16T02:26:19.042Z,82.65
2016-05-16T02:27:19.075Z,82.65
2016-05-16T02:28:19.109Z,82.37
2016-05-16T02:29:19.144Z,82.75
2016-05-16T02:30:19.178Z,83.04
2016-05-16T02:31:19.211Z,83.33
2016-05-16T02:32:19.261Z,83.23
2016-05-16T02:33:19.294Z,84.25
2016-05-16T02:34:19.330Z,83.52
2016-05-16T02:35:19.363Z,83.33
2016-05-16T02:36:19.397Z,83.48
2016-05-16T02:37:19.430Z,83.29
2016-05-16T02:38:19.480Z,83.04
2016-05-16T02:39:19.514Z,83
2016-05-16T02:40:19.549Z,82.37
2016-05-16T02:41:19.582Z,82.62
2016-05-16T02:42:19.615Z,81.75
2016-05-16T02:43:19.649Z,81.75
2016-05-16T02:44:19.684Z,82.62
2016-05-16T02:45:19.718Z,81.66
2016-05-16T02:46:19.767Z,82.62
2016-05-16T02:47:19.802Z,81.66
2016-05-16T02:48:19.835Z,82.32
2016-05-16T02:49:19.870Z,83.09
2016-05-16T02:50:19.903Z,83.58
2016-05-16T02:51:19.937Z,83
2016-05-16T02:52:19.986Z,83.76
2016-05-16T02:53:20.021Z,83.95
2016-05-16T02:54:20.054Z,82.71
2016-05-16T02:55:20.089Z,82.32
2016-05-16T02:56:20.122Z,83.29
2016-05-16T02:57:20.156Z,83.38
2016-05-16T02:58:20.190Z,82.71
2016-05-16T02:59:20.240Z,82.32
2016-05-16T03:00:20.274Z,82.52
2016-05-16T03:01:20.308Z,83.29
2016-05-16T03:02:20.342Z,83.58
2016-05-16T03:03:20.375Z,84.34
2016-05-16T03:04:20.410Z,83.48
2016-05-16T03:05:20.458Z,82.62
2016-05-16T03:06:20.493Z,83.29
2016-05-16T03:07:20.527Z,83.29
2016-05-16T03:08:20.561Z,83.29
2016-05-16T03:09:20.594Z,82.32
2016-05-16T03:10:20.629Z,82.32
2016-05-16T03:11:20.679Z,84.05
2016-05-16T03:12:20.713Z,83.29
2016-05-16T03:13:20.746Z,83.19
2016-05-16T03:14:20.780Z,83.19
2016-05-16T03:15:20.829Z,83.09
2016-05-16T03:16:20.848Z,84.25
2016-05-16T03:17:20.882Z,84.34
2016-05-16T03:18:20.932Z,84.15
2016-05-16T03:19:20.965Z,82.9
2016-05-16T03:20:20.999Z,83.29
2016-05-16T03:21:21.034Z,83.19
2016-05-16T03:22:21.067Z,84.25
2016-05-16T03:23:21.101Z,84.05
2016-05-16T03:24:21.151Z,84.63
2016-05-16T03:25:21.185Z,83.19
2016-05-16T03:26:21.219Z,82.81
2016-05-16T03:27:21.253Z,83.19
2016-05-16T03:28:21.286Z,82.04
2016-05-16T03:29:21.320Z,82.14
2016-05-16T03:30:21.355Z,81.85
2016-05-16T03:31:21.389Z,81.66
2016-05-16T03:32:21.438Z,82.42
2016-05-16T03:33:21.472Z,83.48
2016-05-16T03:34:21.506Z,84.05
2016-05-16T03:35:21.539Z,83.29
2016-05-16T03:36:21.574Z,83
2016-05-16T03:37:21.608Z,84.15
2016-05-16T03:38:21.657Z,83.09
2016-05-16T03:39:21.691Z,84.44
2016-05-16T03:40:21.725Z,83.95
2016-05-16T03:41:21.759Z,83.86
2016-05-16T03:42:21.793Z,83
2016-05-16T03:43:21.827Z,82.52
2016-05-16T03:44:21.861Z,82.04
2016-05-16T03:45:21.910Z,82.14
2016-05-16T03:46:21.944Z,81.95
2016-05-16T03:47:21.979Z,82.71
2016-05-16T03:48:22.012Z,82.14
2016-05-16T03:49:22.046Z,81.75
2016-05-16T03:50:22.080Z,81.75
2016-05-16T03:51:22.114Z,83.19
2016-05-16T03:52:22.164Z,83.29
2016-05-16T03:53:22.198Z,82.81
2016-05-16T03:54:22.231Z,82.81
2016-05-16T03:55:22.265Z,81.75
2016-05-16T03:56:22.300Z,82.14
2016-05-16T03:57:22.334Z,82.23
2016-05-16T03:58:22.367Z,82.9
2016-05-16T03:59:22.417Z,83.29
2016-05-16T04:00:22.450Z,81.85
2016-05-16T04:01:22.484Z,82.62
2016-05-16T04:02:22.519Z,83.29
2016-05-16T04:03:22.553Z,82.81
2016-05-16T04:04:22.586Z,82.81
2016-05-16T04:05:22.730Z,82.23
2016-05-16T04:06:22.670Z,81.95
2016-05-16T04:07:22.705Z,82.23
2016-05-16T04:08:22.738Z,82.14
2016-05-16T04:09:22.772Z,83.67
2016-05-16T04:10:22.805Z,82.9
2016-05-16T04:11:22.840Z,83.19
2016-05-16T04:12:22.889Z,83
2016-05-16T04:13:22.923Z,81.75
2016-05-16T04:14:22.957Z,81.46
2016-05-16T04:15:22.991Z,82.62
2016-05-16T04:16:23.025Z,81.95
2016-05-16T04:17:23.059Z,82.9
2016-05-16T04:18:23.093Z,82.14
2016-05-16T04:19:23.142Z,81.75
2016-05-16T04:20:23.176Z,80.99
2016-05-16T04:21:23.210Z,81.56
2016-05-16T04:22:23.245Z,82.9
2016-05-16T04:23:23.278Z,83.19
2016-05-16T04:24:23.312Z,83.19
2016-05-16T04:25:23.346Z,84.05
2016-05-16T04:26:23.380Z,82.52
2016-05-16T04:27:23.429Z,82.52
2016-05-16T04:28:23.464Z,83.67
2016-05-16T04:29:23.498Z,82.42
2016-05-16T04:30:23.531Z,82.14
2016-05-16T04:31:23.565Z,82.42
2016-05-16T04:32:23.599Z,82.81
2016-05-16T04:33:23.649Z,82.04
2016-05-16T04:34:23.683Z,82.42
2016-05-16T04:35:24.217Z,82.04
2016-05-16T04:36:23.750Z,81.75
2016-05-16T04:37:23.785Z,83
2016-05-16T04:38:23.819Z,82.71
2016-05-16T04:39:23.853Z,82.81
2016-05-16T04:40:23.902Z,83
2016-05-16T04:41:23.936Z,82.04
2016-05-16T04:42:23.970Z,81.75
2016-05-16T04:43:24.004Z,81.27
2016-05-16T04:44:24.038Z,81.18
2016-05-16T04:45:24.071Z,81.46
2016-05-16T04:46:24.105Z,81.56
2016-05-16T04:47:24.155Z,80.79
2016-05-16T04:48:24.190Z,81.56
2016-05-16T04:49:24.238Z,82.42
2016-05-16T04:50:24.257Z,82.14
2016-05-16T04:51:24.290Z,81.37
2016-05-16T04:52:24.326Z,81.56
2016-05-16T04:53:24.374Z,82.04
2016-05-16T04:54:24.409Z,82.71
2016-05-16T04:55:24.442Z,83.76
2016-05-16T04:56:24.476Z,83.67
2016-05-16T04:57:24.510Z,83.95
2016-05-16T04:58:24.544Z,83.86
2016-05-16T04:59:24.578Z,83.76
2016-05-16T05:00:24.628Z,83.38
2016-05-16T05:01:24.662Z,83.48
2016-05-16T05:02:24.695Z,83.38
2016-05-16T05:03:24.730Z,83.19
2016-05-16T05:04:24.763Z,83.38
2016-05-16T05:05:24.797Z,82.23
2016-05-16T05:06:24.831Z,82.71
2016-05-16T05:07:24.866Z,82.42
2016-05-16T05:08:24.914Z,82.14
2016-05-16T05:09:24.949Z,82.04
2016-05-16T05:10:24.983Z,83.38
2016-05-16T05:11:25.016Z,82.52
2016-05-16T05:12:25.066Z,82.52
2016-05-16T05:13:25.100Z,83.09
2016-05-16T05:14:25.135Z,83.58
2016-05-16T05:15:25.169Z,83.38
2016-05-16T05:16:25.202Z,82.71
2016-05-16T05:17:25.235Z,82.81
2016-05-16T05:18:25.270Z,83.19
2016-05-16T05:19:25.304Z,83.29
2016-05-16T05:20:25.338Z,83.19
2016-05-16T05:21:25.387Z,82.32
2016-05-16T05:22:25.421Z,81.27
2016-05-16T05:23:25.454Z,81.37
2016-05-16T05:24:25.490Z,82.04
2016-05-16T05:25:25.523Z,82.04
2016-05-16T05:26:25.557Z,82.52
2016-05-16T05:27:25.590Z,82.9
2016-05-16T05:28:25.640Z,83.29
2016-05-16T05:29:25.675Z,83.19
2016-05-16T05:30:25.708Z,82.32
2016-05-16T05:31:25.742Z,83.09
2016-05-16T05:32:25.776Z,83.48
2016-05-16T05:33:25.811Z,81.95
2016-05-16T05:34:25.860Z,81.95
2016-05-16T05:35:25.894Z,81.46
2016-05-16T05:36:25.927Z,82.14
2016-05-16T05:37:25.962Z,81.56
2016-05-16T05:38:25.995Z,82.14
2016-05-16T05:39:26.030Z,82.14
2016-05-16T05:40:26.079Z,81.66
2016-05-16T05:41:26.113Z,81.56
2016-05-16T05:42:26.146Z,81.27
2016-05-16T05:43:26.181Z,81.66
2016-05-16T05:44:26.215Z,81.56
2016-05-16T05:45:26.249Z,81.46
2016-05-16T05:46:26.282Z,81.46
2016-05-16T05:47:26.317Z,80.99
2016-05-16T05:48:26.365Z,80.45
2016-05-16T05:49:26.400Z,81.75
2016-05-16T05:50:26.434Z,81.56
2016-05-16T05:51:26.468Z,80.99
2016-05-16T05:52:26.501Z,81.37
2016-05-16T05:53:26.536Z,80.79
2016-05-16T05:54:26.585Z,80.7
2016-05-16T05:55:26.620Z,81.08
2016-05-16T05:56:26.654Z,81.08
2016-05-16T05:57:26.687Z,82.14
2016-05-16T05:58:26.721Z,82.42
2016-05-16T05:59:26.755Z,82.42
2016-05-16T06:00:26.789Z,82.04
2016-05-16T06:01:26.839Z,82.62
2016-05-16T06:02:26.873Z,81.37
2016-05-16T06:03:26.906Z,81.75
2016-05-16T06:04:26.940Z,82.23
2016-05-16T06:05:26.975Z,82.14
2016-05-16T06:06:27.008Z,81.79
2016-05-16T06:07:27.058Z,81.95
2016-05-16T06:08:27.092Z,81.79
2016-05-16T06:09:27.125Z,81.66
2016-05-16T06:10:27.160Z,80.83
2016-05-16T06:11:27.193Z,81.22
2016-05-16T06:12:27.228Z,81.27
2016-05-16T06:13:27.277Z,81.79
2016-05-16T06:14:27.311Z,81.02
2016-05-16T06:15:27.344Z,80.89
2016-05-16T06:16:27.394Z,81.98
2016-05-16T06:17:27.412Z,81.56
2016-05-16T06:18:27.446Z,81.12
2016-05-16T06:19:27.481Z,80.93
2016-05-16T06:20:27.515Z,81.95
2016-05-16T06:21:27.565Z,81.51
2016-05-16T06:22:27.598Z,80.89
2016-05-16T06:23:27.632Z,80.93
2016-05-16T06:24:27.666Z,81.95
2016-05-16T06:25:27.700Z,82.14
2016-05-16T06:26:27.749Z,81.51
2016-05-16T06:27:27.784Z,81.98
2016-05-16T06:28:27.817Z,81.98
2016-05-16T06:29:27.867Z,81.51
2016-05-16T06:30:27.885Z,81.02
2016-05-16T06:31:27.919Z,80.74
2016-05-16T06:32:27.970Z,82.08
2016-05-16T06:33:28.002Z,81.7
2016-05-16T06:34:28.037Z,81.51
2016-05-16T06:35:28.384Z,81.51
2016-05-16T06:36:28.105Z,81.02
2016-05-16T06:37:28.139Z,81.02
2016-05-16T06:38:28.172Z,81.31
2016-05-16T06:39:28.222Z,80.99
2016-05-16T06:40:28.256Z,81.6
2016-05-16T06:41:28.290Z,80.74
2016-05-16T06:42:28.324Z,81.79
2016-05-16T06:43:28.358Z,81.89
2016-05-16T06:44:28.391Z,80.93
2016-05-16T06:45:28.441Z,81.41
2016-05-16T06:46:28.475Z,80.93
2016-05-16T06:47:28.510Z,81.7
2016-05-16T06:48:28.544Z,81.98
2016-05-16T06:49:28.577Z,81.89
2016-05-16T06:50:28.611Z,81.98
2016-05-16T06:51:28.661Z,81.41
2016-05-16T06:52:28.694Z,81.41
2016-05-16T06:53:28.729Z,81.02
2016-05-16T06:54:28.762Z,81.51
2016-05-16T06:55:28.796Z,81.98
2016-05-16T06:56:28.830Z,82.08
2016-05-16T06:57:28.865Z,81.6
2016-05-16T06:58:28.914Z,81.51
2016-05-16T06:59:28.995Z,80.55
2016-05-16T07:00:28.981Z,81.02
2016-05-16T07:01:29.015Z,80.74
2016-05-16T07:02:29.096Z,81.6
2016-05-16T07:03:29.098Z,80.93
2016-05-16T07:04:29.134Z,80.93
2016-05-16T07:05:29.167Z,81.22
2016-05-16T07:06:29.200Z,81.12
2016-05-16T07:07:29.235Z,81.89
2016-05-16T07:08:29.269Z,81.22
2016-05-16T07:09:29.319Z,80.74
2016-05-16T07:10:29.352Z,81.12
2016-05-16T07:11:29.386Z,81.79
2016-05-16T07:12:29.514Z,81.6
2016-05-16T07:13:29.455Z,81.51
2016-05-16T07:14:29.488Z,81.79
2016-05-16T07:15:29.522Z,82.46
2016-05-16T07:16:29.572Z,81.7
2016-05-16T07:17:29.699Z,82.56
2016-05-16T07:18:29.639Z,83.23
2016-05-16T07:19:29.673Z,82.65
2016-05-16T07:20:29.707Z,82.46
2016-05-16T07:21:29.741Z,83.23
2016-05-16T07:22:29.791Z,82.75
2016-05-16T07:23:29.825Z,82.37
2016-05-16T07:24:29.859Z,82.56
2016-05-16T07:25:29.893Z,82.18
2016-05-16T07:26:29.926Z,82.46
2016-05-16T07:27:29.960Z,81.98
2016-05-16T07:28:30.010Z,81.02
2016-05-16T07:29:30.043Z,81.6
2016-05-16T07:30:30.079Z,81.93
2016-05-16T07:31:30.112Z,82.46
2016-05-16T07:32:30.145Z,81.12
2016-05-16T07:33:30.179Z,80.64
2016-05-16T07:34:30.229Z,81.7
2016-05-16T07:35:30.545Z,70.09
2016-05-16T07:36:30.297Z,63.86
2016-05-16T07:37:30.331Z,63.67
2016-05-16T07:38:30.365Z,63.54
2016-05-16T07:39:30.400Z,63.16
2016-05-16T07:40:30.449Z,63.51
2016-05-16T07:41:30.482Z,63.6
2016-05-16T07:42:30.517Z,63.99
2016-05-16T07:43:30.550Z,63.76
2016-05-16T07:44:30.584Z,63.67
2016-05-16T07:45:30.618Z,63.86
2016-05-16T07:46:30.652Z,63.67
2016-05-16T07:47:30.701Z,64.02
2016-05-16T07:48:30.735Z,65.36
2016-05-16T07:49:30.770Z,69.76
2016-05-16T07:50:30.804Z,76.37
2016-05-16T07:51:30.838Z,78.38
2016-05-16T07:52:30.871Z,83.26
2016-05-16T07:53:30.905Z,85.46
2016-05-16T07:54:30.940Z,87.66
2016-05-16T07:55:30.973Z,86.55
2016-05-16T07:56:31.023Z,84.45
2016-05-16T07:57:31.056Z,84.64
2016-05-16T07:58:31.091Z,85.98
2016-05-16T07:59:31.125Z,85.41
2016-05-16T08:00:31.159Z,85.93
2016-05-16T08:01:31.193Z,86.41
2016-05-16T08:02:31.226Z,85.74
2016-05-16T08:03:31.276Z,86.6
2016-05-16T08:04:31.309Z,86.31
2016-05-16T08:05:31.344Z,85.88
2016-05-16T08:06:31.378Z,83.95
2016-05-16T08:07:31.412Z,82.62
2016-05-16T08:08:31.445Z,81.18
2016-05-16T08:09:31.480Z,83.48
2016-05-16T08:10:31.514Z,83.19
2016-05-16T08:11:31.563Z,82.32
2016-05-16T08:12:31.597Z,81.66
2016-05-16T08:13:31.630Z,81.85
2016-05-16T08:14:31.665Z,82.18
2016-05-16T08:15:31.700Z,81.41
2016-05-16T08:16:31.733Z,81.41
2016-05-16T08:17:31.783Z,80.93
2016-05-16T08:18:31.816Z,81.31
2016-05-16T08:19:31.850Z,83.33
2016-05-16T08:20:31.885Z,83.33
2016-05-16T08:21:32.355Z,82.08
2016-05-16T08:22:31.952Z,80.55
2016-05-16T08:23:32.080Z,80.26
2016-05-16T08:24:32.021Z,78.63
2016-05-16T08:25:32.069Z,79.21
2016-05-16T08:26:32.104Z,79.11
2016-05-16T08:27:32.153Z,78.63
2016-05-16T08:28:32.187Z,78.82
2016-05-16T08:29:32.220Z,78.25
2016-05-16T08:30:32.239Z,77.95
2016-05-16T08:31:32.290Z,77
2016-05-16T08:32:32.323Z,77.58
2016-05-16T08:33:32.357Z,76.62
2016-05-16T08:34:32.390Z,77.58
2016-05-16T08:35:32.425Z,76.81
2016-05-16T08:36:32.459Z,76.04
2016-05-16T08:37:32.508Z,75.85
2016-05-16T08:38:32.542Z,75.56
2016-05-16T08:39:32.576Z,75.65
2016-05-16T08:40:32.609Z,75.37
2016-05-16T08:41:32.644Z,76.23
2016-05-16T08:42:32.678Z,76.04
2016-05-16T08:43:32.727Z,75.75
2016-05-16T08:44:32.762Z,74.51
2016-05-16T08:45:32.794Z,73.93
2016-05-16T08:46:32.829Z,71.15
2016-05-16T08:47:32.864Z,71.92
2016-05-16T08:48:32.897Z,72.39
2016-05-16T08:49:32.947Z,73.45
2016-05-16T08:50:33.261Z,73.55
2016-05-16T08:51:33.014Z,73.55
2016-05-16T08:52:33.049Z,72.59
2016-05-16T08:53:33.082Z,72.68
2016-05-16T08:54:33.132Z,72.2
2016-05-16T08:55:33.166Z,73.3
2016-05-16T08:56:33.200Z,73.93
2016-05-16T08:57:33.234Z,74.12
2016-05-16T08:58:33.283Z,72.97
2016-05-16T08:59:33.301Z,72.68
2016-05-16T09:00:33.335Z,73
2016-05-16T09:01:33.369Z,73.68
2016-05-16T09:02:33.418Z,72.72
2016-05-16T09:03:33.454Z,73.39
2016-05-16T09:04:33.487Z,72.24
2016-05-16T09:05:33.537Z,73.1
2016-05-16T09:06:33.554Z,73.58
2016-05-16T09:07:33.589Z,73.39
2016-05-16T09:08:33.639Z,72.72
2016-05-16T09:09:33.672Z,72.53
2016-05-16T09:10:33.706Z,71.37
2016-05-16T09:11:33.740Z,71.28
2016-05-16T09:12:33.775Z,70.51
2016-05-16T09:13:33.823Z,70.23
2016-05-16T09:14:33.858Z,71.09
2016-05-16T09:15:33.891Z,71.86
2016-05-16T09:16:33.925Z,70.13
2016-05-16T09:17:33.958Z,70.51
2016-05-16T09:18:33.993Z,71.19
2016-05-16T09:19:34.044Z,71.47
2016-05-16T09:20:34.077Z,71.37
2016-05-16T09:21:34.111Z,72.53
2016-05-16T09:22:34.144Z,72.05
2016-05-16T09:23:34.179Z,71.19
2016-05-16T09:24:34.228Z,70.32
2016-05-16T09:25:34.263Z,70.61
2016-05-16T09:26:34.296Z,70.61
2016-05-16T09:27:34.330Z,69.74
2016-05-16T09:28:34.364Z,70.13
2016-05-16T09:29:34.398Z,69.93
2016-05-16T09:30:34.448Z,70.13
2016-05-16T09:31:34.481Z,69.65
2016-05-16T09:32:34.531Z,68.79
2016-05-16T09:33:34.549Z,68.02
2016-05-16T09:34:34.584Z,68.4
2016-05-16T09:35:34.743Z,69.56
2016-05-16T09:36:34.667Z,69.84
2016-05-16T09:37:34.701Z,70.32
2016-05-16T09:38:34.734Z,69.84
2016-05-16T09:39:34.768Z,70.23
2016-05-16T09:40:34.818Z,70.23
2016-05-16T09:41:34.852Z,69.74
2016-05-16T09:42:34.886Z,68.88
2016-05-16T09:43:34.920Z,69.84
2016-05-16T09:44:34.954Z,70.23
2016-05-16T09:45:34.988Z,71.09
2016-05-16T09:46:35.037Z,72.14
2016-05-16T09:47:35.071Z,72.95
2016-05-16T09:48:35.105Z,72.81
2016-05-16T09:49:35.139Z,72.53
2016-05-16T09:50:35.172Z,71.28
2016-05-16T09:51:35.223Z,70.32
2016-05-16T09:52:35.257Z,70.23
2016-05-16T09:53:35.291Z,70.03
2016-05-16T09:54:35.324Z,70.13
2016-05-16T09:55:35.358Z,70.26
2016-05-16T09:56:35.408Z,70.51
2016-05-16T09:57:35.442Z,70.45
2016-05-16T09:58:35.477Z,70.26
2016-05-16T09:59:35.510Z,69.2
2016-05-16T10:00:35.544Z,69.2
2016-05-16T10:01:35.577Z,68.15
2016-05-16T10:02:35.627Z,67.57
2016-05-16T10:03:35.661Z,68.91
2016-05-16T10:04:35.695Z,68.63
2016-05-16T10:05:36.229Z,69.46
2016-05-16T10:06:35.763Z,70.26
2016-05-16T10:07:35.813Z,69.65
2016-05-16T10:08:35.846Z,69.74
2016-05-16T10:09:35.881Z,70.07
2016-05-16T10:10:35.930Z,71.22
2016-05-16T10:11:35.948Z,70.8
2016-05-16T10:12:35.982Z,70.74
2016-05-16T10:13:36.095Z,70.74
2016-05-16T10:14:37.410Z,70.55
2016-05-16T10:15:36.100Z,70.61
2016-05-16T10:16:36.134Z,72.28
2016-05-16T10:17:42.480Z,71.41
2016-05-16T10:18:36.217Z,71.12
2016-05-16T10:19:36.250Z,70.64
2016-05-16T10:20:36.286Z,70.07
2016-05-16T10:21:36.319Z,70.26
2016-05-16T10:22:36.353Z,70.03
2016-05-16T10:23:36.387Z,70.07
2016-05-16T10:24:36.436Z,70.03
2016-05-16T10:25:36.471Z,70.17
2016-05-16T10:26:36.504Z,70.17
2016-05-16T10:27:36.538Z,70.13
2016-05-16T10:28:36.588Z,70.03
2016-05-16T10:29:36.622Z,70.17
2016-05-16T10:30:36.656Z,70.07
2016-05-16T10:31:36.690Z,71.61
2016-05-16T10:32:36.724Z,72.18
2016-05-16T10:33:36.757Z,72.18
2016-05-16T10:34:36.807Z,72.18
2016-05-16T10:35:36.840Z,72.75
2016-05-16T10:36:36.876Z,72.28
2016-05-16T10:37:36.909Z,73.04
2016-05-16T10:38:36.942Z,72.18
2016-05-16T10:39:36.993Z,71.89
2016-05-16T10:40:37.027Z,71.51
2016-05-16T10:41:37.060Z,71.22
2016-05-16T10:42:37.095Z,70.84
2016-05-16T10:43:37.128Z,70.26
2016-05-16T10:44:37.178Z,70.17
2016-05-16T10:45:37.211Z,69.87
2016-05-16T10:46:37.245Z,70.26
2016-05-16T10:47:37.280Z,69.11
2016-05-16T10:48:37.314Z,68.63
2016-05-16T10:49:37.347Z,69.2
2016-05-16T10:50:37.397Z,69.4
2016-05-16T10:51:37.430Z,69.2
2016-05-16T10:52:37.465Z,69.59
2016-05-16T10:53:37.499Z,69.3
2016-05-16T10:54:37.533Z,68.82
2016-05-16T10:55:37.583Z,68.24
2016-05-16T10:56:37.616Z,67
2016-05-16T10:57:37.690Z,67.47
2016-05-16T10:58:37.772Z,67.96
2016-05-16T10:59:37.852Z,68.15
2016-05-16T11:00:37.949Z,68.91
2016-05-16T11:01:38.029Z,68.15
2016-05-16T11:02:38.084Z,68.24
2016-05-16T11:03:38.135Z,68.15
2016-05-16T11:04:38.217Z,68.76
2016-05-16T11:05:38.253Z,68.18
2016-05-16T11:06:38.304Z,67.86
2016-05-16T11:07:38.344Z,67.29
2016-05-16T11:08:38.384Z,66.74
2016-05-16T11:09:38.439Z,66.9
2016-05-16T11:10:38.479Z,67.19
2016-05-16T11:11:38.520Z,66.52
2016-05-16T11:12:38.572Z,67.32
2016-05-16T11:13:38.591Z,67.8
2016-05-16T11:14:38.644Z,68.28
2016-05-16T11:15:38.679Z,68.08
2016-05-16T11:16:38.732Z,67.32
2016-05-16T11:17:38.751Z,67.32
2016-05-16T11:18:38.785Z,67.9
2016-05-16T11:19:38.837Z,68.76
2016-05-16T11:20:38.870Z,69.34
2016-05-16T11:21:38.905Z,69.05
2016-05-16T11:22:38.941Z,68.37
2016-05-16T11:23:39.005Z,67.41
2016-05-16T11:24:39.025Z,67.41
2016-05-16T11:25:39.074Z,67.41
2016-05-16T11:26:39.092Z,67.32
2016-05-16T11:27:39.142Z,67.22
2016-05-16T11:28:39.176Z,65.2
2016-05-16T11:29:39.210Z,65.3
2016-05-16T11:30:39.245Z,65.2
2016-05-16T11:31:39.278Z,65.49
2016-05-16T11:32:39.328Z,65.3
2016-05-16T11:33:39.362Z,65.3
2016-05-16T11:34:39.396Z,65.49
2016-05-16T11:35:39.430Z,66.26
2016-05-16T11:36:39.463Z,66.36
2016-05-16T11:37:39.513Z,66.36
2016-05-16T11:38:39.547Z,65.69
2016-05-16T11:39:39.581Z,65.3
2016-05-16T11:40:39.615Z,65.3
2016-05-16T11:41:39.649Z,64.82
2016-05-16T11:42:39.698Z,64.72
2016-05-16T11:43:39.732Z,64.43
2016-05-16T11:44:39.766Z,64.43
2016-05-16T11:45:39.815Z,65.49
2016-05-16T11:46:39.850Z,66.16
2016-05-16T11:47:39.884Z,66.07
2016-05-16T11:48:39.918Z,66.64
2016-05-16T11:49:39.952Z,66.16
2016-05-16T11:50:40.001Z,65.4
2016-05-16T11:51:40.035Z,65.3
2016-05-16T11:52:40.069Z,65.59
2016-05-16T11:53:40.103Z,65.4
2016-05-16T11:54:40.137Z,65.2
2016-05-16T11:55:40.187Z,65.49
2016-05-16T11:56:40.220Z,65.59
2016-05-16T11:57:40.254Z,65.88
2016-05-16T11:58:40.288Z,66.26
2016-05-16T11:59:40.323Z,67.03
2016-05-16T12:00:40.372Z,67.13
2016-05-16T12:01:40.406Z,67.32
2016-05-16T12:02:40.440Z,67.7
2016-05-16T12:03:40.474Z,67.03
2016-05-16T12:04:40.523Z,67.7
2016-05-16T12:05:40.557Z,67.7
2016-05-16T12:06:40.591Z,67.9
2016-05-16T12:07:40.625Z,67.32
2016-05-16T12:08:40.675Z,65.97
2016-05-16T12:09:40.708Z,65.97
2016-05-16T12:10:40.743Z,65.62
2016-05-16T12:11:40.777Z,65.53
2016-05-16T12:12:40.810Z,65.33
2016-05-16T12:13:40.860Z,65.23
2016-05-16T12:14:40.894Z,65.33
2016-05-16T12:15:40.928Z,65.72
2016-05-16T12:16:40.962Z,66
2016-05-16T12:17:41.012Z,66.2
2016-05-16T12:18:41.045Z,66.2
2016-05-16T12:19:41.079Z,66.49
2016-05-16T12:20:41.128Z,66.39
2016-05-16T12:21:41.147Z,66
2016-05-16T12:22:41.197Z,66.2
2016-05-16T12:23:41.231Z,66
2016-05-16T12:24:41.265Z,66
2016-05-16T12:25:41.314Z,66
2016-05-16T12:26:41.348Z,65.72
2016-05-16T12:27:41.382Z,65.53
2016-05-16T12:28:41.416Z,66
2016-05-16T12:29:41.450Z,66
2016-05-16T12:30:41.500Z,66.49
2016-05-16T12:31:41.534Z,66.58
2016-05-16T12:32:41.567Z,66.87
2016-05-16T12:33:41.617Z,66.49
2016-05-16T12:34:41.650Z,66.3
2016-05-16T12:35:41.981Z,66.52
2016-05-16T12:36:41.718Z,66.42
2016-05-16T12:37:41.753Z,66.33
2016-05-16T12:38:41.803Z,66.42
2016-05-16T12:39:41.836Z,66.23
2016-05-16T12:40:41.870Z,66.04
2016-05-16T12:41:41.904Z,65.37
2016-05-16T12:42:41.954Z,64.47
2016-05-16T12:43:41.987Z,64.02
2016-05-16T12:44:42.021Z,64.5
2016-05-16T12:45:42.055Z,65.14
2016-05-16T12:46:42.105Z,65.33
2016-05-16T12:47:42.138Z,65.14
2016-05-16T12:48:42.173Z,64.69
2016-05-16T12:49:42.207Z,64.22
2016-05-16T12:50:42.256Z,64.18
2016-05-16T12:51:42.291Z,63.79
2016-05-16T12:52:42.323Z,64.02
2016-05-16T12:53:42.359Z,64.69
2016-05-16T12:54:42.408Z,65.08
2016-05-16T12:55:42.442Z,66.33
2016-05-16T12:56:42.475Z,66.23
2016-05-16T12:57:42.509Z,66.04